Helas — C4AZ2 — position and weather

sailwx.info

Track history (hours):
 
Tides and Currents Weather Stations Pressure Air Temp Water Temp Dewpoint Dewpoint Depression Visibility Wind Speed Wind Dir Waves Ship Positions

Helas

Last reported at 2017-Apr-24 04:03 UTC. Time now 2017-Apr-25 02:41 UTC.
Position N 42°20' W 009°02'.

Length 89 m; draft 5.5 m.

Type: Cargo ship. MMSI: 210031000.

Date/timePositionNaut miles runAvg speedWind from/ knotsBaromVisibWave heightAir tempDewpointWater temp
2017-Apr-24 04:03N 42°20' W 009°02'0 9.0
2017-Apr-24 04:00N 42°20' W 009°03'4 8.9
2017-Apr-24 03:30N 42°23' W 009°08'4 8.7
2017-Apr-24 03:00N 42°25' W 009°12'4 8.6
2017-Apr-24 02:30N 42°28' W 009°17'4 8.4
2017-Apr-24 02:00N 42°30' W 009°22'13 8.3
2017-Apr-24 00:29N 42°37' W 009°36'22 8.6
2017-Apr-23 21:58N 42°50' W 009°60'5 8.7
2017-Apr-23 21:27N 42°53' W 010°04'82 8.4
2017-Apr-23 11:43N 44°10' W 009°25'2 8.7
2017-Apr-23 11:31N 44°11' W 009°24'4 8.7
2017-Apr-23 11:00N 44°15' W 009°21'4 8.7
2017-Apr-23 10:30N 44°19' W 009°17'298 8.9
2017-Apr-22 00:48N 48°42' W 005°55'3 9.0
2017-Apr-22 00:29N 48°45' W 005°52'4 9.0
2017-Apr-21 23:59N 48°49' W 005°49'4 9.0
2017-Apr-21 23:29N 48°52' W 005°45'4 8.8
2017-Apr-21 23:00N 48°55' W 005°40'5 9.1
2017-Apr-21 22:30N 48°57' W 005°34'7 9.2
2017-Apr-21 21:47N 49°00' W 005°25'3 9.4
2017-Apr-21 21:29N 49°02' W 005°22'5 9.5
2017-Apr-21 21:00N 49°04' W 005°15'5 9.7
2017-Apr-21 20:30N 49°06' W 005°09'64 9.7
2017-Apr-21 13:58N 49°38' W 003°44'15 9.0
2017-Apr-21 12:20N 49°46' W 003°25'3 9.3
2017-Apr-21 12:00N 49°48' W 003°21'5 9.4
2017-Apr-21 11:31N 49°50' W 003°15'6 9.7
2017-Apr-21 10:55N 49°53' W 003°07'410.0
2017-Apr-21 10:31N 49°55' W 003°02'510.2
2017-Apr-21 10:00N 49°58' W 002°55'1010.5
2017-Apr-21 09:05N 50°00' W 002°40'110.6
2017-Apr-21 08:56N 50°01' W 002°38'1210.6
2017-Apr-21 07:50N 50°04' W 002°20'310.4
2017-Apr-21 07:30N 50°04' W 002°15'1110.0
2017-Apr-21 06:24N 50°05' W 001°58'4 9.5
2017-Apr-21 06:01N 50°05' W 001°52'5 9.1
2017-Apr-21 05:30N 50°05' W 001°45'4 8.7
2017-Apr-21 05:00N 50°06' W 001°38'5 8.3
2017-Apr-21 04:23N 50°06' W 001°30'16 7.9
2017-Apr-21 02:25N 50°12' W 001°07'11 8.5
2017-Apr-21 01:06N 50°16' W 000°51'1 9.0
2017-Apr-21 00:59N 50°17' W 000°50'5 9.1
2017-Apr-21 00:28N 50°18' W 000°43'7 9.5
2017-Apr-20 23:45N 50°21' W 000°33'2 9.8
2017-Apr-20 23:31N 50°22' W 000°30'5 9.8
2017-Apr-20 23:00N 50°24' W 000°23'510.1
2017-Apr-20 22:31N 50°26' W 000°15'510.2
2017-Apr-20 22:00N 50°28' W 000°08'510.2
2017-Apr-20 21:31N 50°30' W 000°01'510.2
2017-Apr-20 20:58N 50°32' E 000°07'510.1
2017-Apr-20 20:30N 50°34' E 000°14'510.0
2017-Apr-20 20:01N 50°36' E 000°21'5 9.8
2017-Apr-20 19:30N 50°37' E 000°29'5 9.5
2017-Apr-20 19:01N 50°39' E 000°35'5 9.4
2017-Apr-20 18:31N 50°42' E 000°41'5 9.1
2017-Apr-20 18:01N 50°44' E 000°47'6 8.9
2017-Apr-20 17:20N 50°48' E 000°55'11 8.8
2017-Apr-20 16:07N 50°55' E 001°08'1 9.0
2017-Apr-20 16:01N 50°55' E 001°09'5 9.2
2017-Apr-20 15:31N 50°58' E 001°15'5 9.8
2017-Apr-20 15:01N 51°01' E 001°21'510.4
2017-Apr-20 14:31N 51°05' E 001°27'1111.1
2017-Apr-20 13:30N 51°12' E 001°41'510.7
2017-Apr-20 13:00N 51°16' E 001°46'510.4
2017-Apr-20 12:31N 51°20' E 001°50'510.1
2017-Apr-20 12:00N 51°25' E 001°54'5 9.7
2017-Apr-20 11:31N 51°29' E 001°59'5 9.4
2017-Apr-20 11:00N 51°32' E 002°04'4 9.0
2017-Apr-20 10:30N 51°36' E 002°09'89 9.0
2017-Apr-20 00:32N 52°31' E 004°03'0 9.6
2017-Apr-20 00:29N 52°31' E 004°04'4 9.3
2017-Apr-20 00:01N 52°31' E 004°11'5 9.0
2017-Apr-19 23:30N 52°30' E 004°18'5 9.1
2017-Apr-19 23:01N 52°29' E 004°25'5 9.1
2017-Apr-19 22:30N 52°28' E 004°33'2 4.4
2017-Apr-19 21:59N 52°28' E 004°36'0 0.0
2017-Apr-19 21:29N 52°28' E 004°36'0 0.0
2017-Apr-19 20:59N 52°28' E 004°36'0 0.0
2017-Apr-19 20:29N 52°28' E 004°36'0 0.0
2017-Apr-19 19:59N 52°28' E 004°36'0 0.0
2017-Apr-19 19:29N 52°28' E 004°36'0 0.0
2017-Apr-19 18:56N 52°28' E 004°36'0 0.0
2017-Apr-19 18:29N 52°28' E 004°36'0 0.0
2017-Apr-19 17:59N 52°28' E 004°36'0 0.0
2017-Apr-19 17:29N 52°28' E 004°36'0 0.0
2017-Apr-19 16:53N 52°28' E 004°36'0 0.0
2017-Apr-19 16:29N 52°28' E 004°36'0 0.0
2017-Apr-19 15:59N 52°28' E 004°36'0 0.0
2017-Apr-19 15:29N 52°28' E 004°36'0 0.0
2017-Apr-19 14:59N 52°28' E 004°36'0 0.0
2017-Apr-19 14:29N 52°28' E 004°36'0 0.0
2017-Apr-19 13:29N 52°28' E 004°36'0 0.0
2017-Apr-19 12:59N 52°28' E 004°36'0 0.0
2017-Apr-19 12:02N 52°28' E 004°36'0 0.1
2017-Apr-19 11:59N 52°28' E 004°36'0 0.0
2017-Apr-19 11:29N 52°28' E 004°36'0 0.0
2017-Apr-19 10:59N 52°28' E 004°36'0 0.0
2017-Apr-19 10:29N 52°28' E 004°36'0 0.0
2017-Apr-19 09:59N 52°28' E 004°36'0 0.0
2017-Apr-19 09:29N 52°28' E 004°36'0 0.0
2017-Apr-19 08:59N 52°28' E 004°36'0 0.0
2017-Apr-19 08:29N 52°28' E 004°36'0 0.0
2017-Apr-19 07:59N 52°28' E 004°36'0 0.0
2017-Apr-19 07:29N 52°28' E 004°36'0 0.0
2017-Apr-19 06:56N 52°28' E 004°36'0 0.0
2017-Apr-19 06:29N 52°28' E 004°36'0 0.0
2017-Apr-19 05:59N 52°28' E 004°36'0 0.0
2017-Apr-19 05:29N 52°28' E 004°36'0 0.0
2017-Apr-19 04:59N 52°28' E 004°36'0 0.0
2017-Apr-19 04:28N 52°28' E 004°36'0 0.0
2017-Apr-19 03:58N 52°28' E 004°36'0 0.0
2017-Apr-19 03:28N 52°28' E 004°36'0 0.0
2017-Apr-19 02:55N 52°28' E 004°36'0 0.0
2017-Apr-19 02:28N 52°28' E 004°36'0 0.0
2017-Apr-19 01:58N 52°28' E 004°36'0 0.0
2017-Apr-19 01:28N 52°28' E 004°36'0 0.0
2017-Apr-19 00:58N 52°28' E 004°36'0 0.0
2017-Apr-19 00:28N 52°28' E 004°36'0 0.0
2017-Apr-18 23:58N 52°28' E 004°36'0 0.0
2017-Apr-18 23:28N 52°28' E 004°36'0 0.0
2017-Apr-18 22:58N 52°28' E 004°36'0 0.0
2017-Apr-18 22:28N 52°28' E 004°36'0 0.0
2017-Apr-18 21:58N 52°28' E 004°36'0 0.0
2017-Apr-18 21:28N 52°28' E 004°36'0 0.0
2017-Apr-18 20:58N 52°28' E 004°36'0 0.0
2017-Apr-18 20:28N 52°28' E 004°36'0 0.0
2017-Apr-18 19:55N 52°28' E 004°36'0 0.0
2017-Apr-18 19:28N 52°28' E 004°36'0 0.0
2017-Apr-18 18:58N 52°28' E 004°36'0 0.0
2017-Apr-18 18:28N 52°28' E 004°36'0 0.0
2017-Apr-18 17:55N 52°28' E 004°36'0 0.0
2017-Apr-18 17:28N 52°28' E 004°36'0 0.0
2017-Apr-18 16:58N 52°28' E 004°36'0 0.0
2017-Apr-18 16:28N 52°28' E 004°36'0 0.0
2017-Apr-18 15:55N 52°28' E 004°36'0 0.1
2017-Apr-18 15:28N 52°28' E 004°36'0 0.0
2017-Apr-18 14:58N 52°28' E 004°36'0 0.0
2017-Apr-18 14:28N 52°28' E 004°36'0 0.1
2017-Apr-18 13:28N 52°28' E 004°36'0 0.0
2017-Apr-18 12:55N 52°28' E 004°36'0 0.0
2017-Apr-18 12:28N 52°28' E 004°36'0 0.0
2017-Apr-18 11:58N 52°28' E 004°36'0 0.0
2017-Apr-18 11:28N 52°28' E 004°36'0 0.0
2017-Apr-18 10:52N 52°28' E 004°36'0 0.0
2017-Apr-18 10:25N 52°28' E 004°36'0 0.0
2017-Apr-18 09:58N 52°28' E 004°36'0 0.0
2017-Apr-18 09:28N 52°28' E 004°36'0 0.0
2017-Apr-18 08:58N 52°28' E 004°36'0 0.0
2017-Apr-18 08:28N 52°28' E 004°36'0 0.0
2017-Apr-18 07:58N 52°28' E 004°36'0 0.0
2017-Apr-18 07:28N 52°28' E 004°36'0 0.0
2017-Apr-18 06:58N 52°28' E 004°36'0 0.0
2017-Apr-18 06:28N 52°28' E 004°36'0 0.0
2017-Apr-18 05:58N 52°28' E 004°36'0 0.0
2017-Apr-18 05:25N 52°28' E 004°36'0 0.0
2017-Apr-18 04:58N 52°28' E 004°36'0 0.0
2017-Apr-18 04:28N 52°28' E 004°36'0 0.0
2017-Apr-18 03:58N 52°28' E 004°36'0 0.0
2017-Apr-18 03:28N 52°28' E 004°36'0 0.0
2017-Apr-18 02:58N 52°28' E 004°36'0 0.0
2017-Apr-18 02:28N 52°28' E 004°36'0 0.0
2017-Apr-18 01:58N 52°28' E 004°36'0 0.0
2017-Apr-18 01:28N 52°28' E 004°36'0 0.0
2017-Apr-18 00:58N 52°28' E 004°36'0 0.0
2017-Apr-18 00:25N 52°28' E 004°36'0 0.0
2017-Apr-17 23:55N 52°28' E 004°36'0 0.0
2017-Apr-17 23:28N 52°28' E 004°36'0 0.0
2017-Apr-17 22:58N 52°28' E 004°36'0 0.0
2017-Apr-17 22:31N 52°28' E 004°36'0 0.0
2017-Apr-17 22:01N 52°28' E 004°36'0 0.0
2017-Apr-17 21:30N 52°28' E 004°36'0 0.0
2017-Apr-17 21:00N 52°28' E 004°36'0 0.0
2017-Apr-17 20:30N 52°28' E 004°36'0 0.0
2017-Apr-17 20:00N 52°28' E 004°36'0 0.0
2017-Apr-17 19:30N 52°28' E 004°36'0 0.0
2017-Apr-17 19:00N 52°28' E 004°36'0 0.0
2017-Apr-17 18:30N 52°28' E 004°36'0 0.0
2017-Apr-17 18:00N 52°28' E 004°36'0 0.0
2017-Apr-17 17:30N 52°28' E 004°36'0 0.0
2017-Apr-17 17:00N 52°28' E 004°36'0 0.0
2017-Apr-17 16:30N 52°28' E 004°36'0 0.0
2017-Apr-17 16:00N 52°28' E 004°36'0 0.0
2017-Apr-17 15:30N 52°28' E 004°36'0 0.0
2017-Apr-17 15:00N 52°28' E 004°36'0 0.0
2017-Apr-17 14:30N 52°28' E 004°36'0 0.0
2017-Apr-17 13:30N 52°28' E 004°36'0 0.0
2017-Apr-17 13:00N 52°28' E 004°36'0 0.0
2017-Apr-17 12:30N 52°28' E 004°36'0 0.0
2017-Apr-17 12:00N 52°28' E 004°36'0 0.0
2017-Apr-17 11:30N 52°28' E 004°36'0 0.0
2017-Apr-17 11:00N 52°28' E 004°36'0 0.0
2017-Apr-17 10:30N 52°28' E 004°36'0 0.0
2017-Apr-17 10:00N 52°28' E 004°36'0 0.0
2017-Apr-17 09:30N 52°28' E 004°36'0 0.0
2017-Apr-17 09:00N 52°28' E 004°36'0 0.0
2017-Apr-17 08:30N 52°28' E 004°36'0 0.0
2017-Apr-17 08:00N 52°28' E 004°36'0 0.0
2017-Apr-17 07:30N 52°28' E 004°36'0 0.0
2017-Apr-17 07:00N 52°28' E 004°36'0 0.0
2017-Apr-17 06:30N 52°28' E 004°36'0 0.0
2017-Apr-17 06:00N 52°28' E 004°36'0 0.0
2017-Apr-17 05:30N 52°28' E 004°36'0 0.0
2017-Apr-17 05:00N 52°28' E 004°36'0 0.0
2017-Apr-17 04:30N 52°28' E 004°36'0 0.0
2017-Apr-17 04:00N 52°28' E 004°36'0 0.0
2017-Apr-17 03:30N 52°28' E 004°36'0 0.0
2017-Apr-17 03:00N 52°28' E 004°36'0 0.0
2017-Apr-17 02:27N 52°28' E 004°36'0 0.0
2017-Apr-17 02:00N 52°28' E 004°36'0 0.0
2017-Apr-17 01:30N 52°28' E 004°36'0 0.0
2017-Apr-17 01:00N 52°28' E 004°36'0 0.0
2017-Apr-17 00:30N 52°28' E 004°36'0 0.0
2017-Apr-16 23:57N 52°28' E 004°36'0 0.0
2017-Apr-16 23:30N 52°28' E 004°36'0 0.0
2017-Apr-16 23:00N 52°28' E 004°36'0 0.0
2017-Apr-16 22:30N 52°28' E 004°36'0 0.0
2017-Apr-16 22:00N 52°28' E 004°36'0 0.0
2017-Apr-16 21:30N 52°28' E 004°36'0 0.0
2017-Apr-16 21:00N 52°28' E 004°36'0 0.0
2017-Apr-16 20:27N 52°28' E 004°36'0 0.0
2017-Apr-16 20:00N 52°28' E 004°36'0 0.0
2017-Apr-16 19:30N 52°28' E 004°36'0 0.0
2017-Apr-16 18:57N 52°28' E 004°36'0 0.0
2017-Apr-16 18:30N 52°28' E 004°36'0 0.0
2017-Apr-16 18:00N 52°28' E 004°36'0 0.0
2017-Apr-16 17:30N 52°28' E 004°36'0 0.0
2017-Apr-16 17:00N 52°28' E 004°36'0 0.0
2017-Apr-16 16:30N 52°28' E 004°36'0 0.0
2017-Apr-16 16:00N 52°28' E 004°36'0 0.1
2017-Apr-16 15:30N 52°28' E 004°36'0 0.1
2017-Apr-16 15:00N 52°28' E 004°36'0 0.0
2017-Apr-16 13:59N 52°28' E 004°36'0 0.0
2017-Apr-16 13:29N 52°28' E 004°36'0 0.0
2017-Apr-16 12:59N 52°28' E 004°36'0 0.0
2017-Apr-16 12:29N 52°28' E 004°36'0 0.0
2017-Apr-16 11:59N 52°28' E 004°36'0 0.0
2017-Apr-16 11:29N 52°28' E 004°36'0 0.0
2017-Apr-16 10:59N 52°28' E 004°36'0 0.2
2017-Apr-16 10:29N 52°28' E 004°36'0 0.2
2017-Apr-16 09:59N 52°28' E 004°36'0 0.0
2017-Apr-16 09:29N 52°28' E 004°36'0 0.0
2017-Apr-16 08:56N 52°28' E 004°36'0 0.1
2017-Apr-16 08:29N 52°28' E 004°36'0 0.0
2017-Apr-16 07:59N 52°28' E 004°36'0 0.0
2017-Apr-16 07:29N 52°28' E 004°36'0 0.0
2017-Apr-16 06:59N 52°28' E 004°36'0 0.0
2017-Apr-16 06:29N 52°28' E 004°36'0 0.0
2017-Apr-16 05:59N 52°28' E 004°36'0 0.0
2017-Apr-16 05:29N 52°28' E 004°36'0 0.0
2017-Apr-16 04:59N 52°28' E 004°36'0 0.0
2017-Apr-16 04:29N 52°28' E 004°36'0 0.0
2017-Apr-16 03:59N 52°28' E 004°36'0 0.0
2017-Apr-16 03:29N 52°28' E 004°36'0 0.0
2017-Apr-16 02:59N 52°28' E 004°36'0 0.0
2017-Apr-16 02:29N 52°28' E 004°36'0 0.0
2017-Apr-16 01:59N 52°28' E 004°36'0 0.0
2017-Apr-16 01:29N 52°28' E 004°36'0 0.0
2017-Apr-16 00:59N 52°28' E 004°36'0 0.0
2017-Apr-16 00:29N 52°28' E 004°36'0 0.0
2017-Apr-15 23:59N 52°28' E 004°36'0 0.0
2017-Apr-15 23:29N 52°28' E 004°36'0 0.0
2017-Apr-15 22:59N 52°28' E 004°36'0 0.0
2017-Apr-15 22:29N 52°28' E 004°36'0 0.0
2017-Apr-15 21:59N 52°28' E 004°36'0 0.0
2017-Apr-15 21:29N 52°28' E 004°36'0 0.0
2017-Apr-15 20:59N 52°28' E 004°36'0 0.0
2017-Apr-15 20:29N 52°28' E 004°36'0 0.0
2017-Apr-15 19:59N 52°28' E 004°36'0 0.0
2017-Apr-15 19:29N 52°28' E 004°36'0 0.0
2017-Apr-15 18:59N 52°28' E 004°36'0 0.0
2017-Apr-15 18:29N 52°28' E 004°36'0 0.0
2017-Apr-15 17:59N 52°28' E 004°36'0 0.0
2017-Apr-15 17:29N 52°28' E 004°36'0 0.0
2017-Apr-15 16:59N 52°28' E 004°36'0 0.0
2017-Apr-15 16:26N 52°28' E 004°36'0 0.1
2017-Apr-15 15:59N 52°28' E 004°36'0 0.1
2017-Apr-15 15:29N 52°28' E 004°36'0 0.0
2017-Apr-15 14:56N 52°28' E 004°36'0 0.0
2017-Apr-15 13:59N 52°28' E 004°36'0 0.0
2017-Apr-15 13:29N 52°28' E 004°36'0 0.0
2017-Apr-15 12:59N 52°28' E 004°36'0 0.0
2017-Apr-15 12:29N 52°28' E 004°36'0 0.0
2017-Apr-15 11:59N 52°28' E 004°36'0 0.0
2017-Apr-15 11:26N 52°28' E 004°36'0 0.0
2017-Apr-15 10:59N 52°28' E 004°36'0 0.0
2017-Apr-15 09:59N 52°28' E 004°36'0 0.0
2017-Apr-15 09:29N 52°28' E 004°36'2 5.0
2017-Apr-15 09:00N 52°28' E 004°32'4 8.9
2017-Apr-15 08:31N 52°28' E 004°25'4 8.0
2017-Apr-15 08:01N 52°29' E 004°18'4 8.9
2017-Apr-15 07:31N 52°29' E 004°11'5 9.3
2017-Apr-15 07:00N 52°28' E 004°04'5 9.4
2017-Apr-15 06:27N 52°26' E 003°56'3 6.9
2017-Apr-15 05:58N 52°25' E 003°51'67 5.7
2017-Apr-14 18:15N 51°40' E 002°30'3 7.0
2017-Apr-14 17:53N 51°38' E 002°27'3 7.2
2017-Apr-14 17:31N 51°36' E 002°25'4 7.6
2017-Apr-14 17:01N 51°33' E 002°21'4 7.8
2017-Apr-14 16:30N 51°30' E 002°17'4 7.5
2017-Apr-14 16:01N 51°26' E 002°14'4 8.0
2017-Apr-14 15:31N 51°23' E 002°11'4 7.9
2017-Apr-14 15:01N 51°19' E 002°08'8 8.2
2017-Apr-14 14:00N 51°13' E 002°00'4 8.5
2017-Apr-14 13:30N 51°10' E 001°55'4 8.5
2017-Apr-14 13:01N 51°07' E 001°50'4 8.4
2017-Apr-14 12:31N 51°05' E 001°45'4 8.1
2017-Apr-14 12:01N 51°02' E 001°41'4 7.2
2017-Apr-14 11:31N 50°59' E 001°37'3 6.6
2017-Apr-14 11:00N 50°56' E 001°34'4 8.2
2017-Apr-14 10:31N 50°53' E 001°30'4 7.6
2017-Apr-14 10:00N 50°49' E 001°28'  
Track history (hours):
 
Tides and Currents Weather Stations Pressure Air Temp Water Temp Dewpoint Dewpoint Depression Visibility Wind Speed Wind Dir Waves Ship Positions

Helas

Last reported at 2017-Apr-24 04:03 UTC. Time now 2017-Apr-25 02:41 UTC.
Position N 42°20' W 009°02'.

Length 89 m; draft 5.5 m.

Type: Cargo ship. MMSI: 210031000.

Date/timePositionNaut miles runAvg speedWind from/ knotsBaromVisibWave heightAir tempDewpointWater temp
2017-Apr-24 04:03N 42°20' W 009°02'0 9.0
2017-Apr-24 04:00N 42°20' W 009°03'4 8.9
2017-Apr-24 03:30N 42°23' W 009°08'4 8.7
2017-Apr-24 03:00N 42°25' W 009°12'4 8.6
2017-Apr-24 02:30N 42°28' W 009°17'4 8.4
2017-Apr-24 02:00N 42°30' W 009°22'13 8.3
2017-Apr-24 00:29N 42°37' W 009°36'22 8.6
2017-Apr-23 21:58N 42°50' W 009°60'5 8.7
2017-Apr-23 21:27N 42°53' W 010°04'82 8.4
2017-Apr-23 11:43N 44°10' W 009°25'2 8.7
2017-Apr-23 11:31N 44°11' W 009°24'4 8.7
2017-Apr-23 11:00N 44°15' W 009°21'4 8.7
2017-Apr-23 10:30N 44°19' W 009°17'298 8.9
2017-Apr-22 00:48N 48°42' W 005°55'3 9.0
2017-Apr-22 00:29N 48°45' W 005°52'4 9.0
2017-Apr-21 23:59N 48°49' W 005°49'4 9.0
2017-Apr-21 23:29N 48°52' W 005°45'4 8.8
2017-Apr-21 23:00N 48°55' W 005°40'5 9.1
2017-Apr-21 22:30N 48°57' W 005°34'7 9.2
2017-Apr-21 21:47N 49°00' W 005°25'3 9.4
2017-Apr-21 21:29N 49°02' W 005°22'5 9.5
2017-Apr-21 21:00N 49°04' W 005°15'5 9.7
2017-Apr-21 20:30N 49°06' W 005°09'64 9.7
2017-Apr-21 13:58N 49°38' W 003°44'15 9.0
2017-Apr-21 12:20N 49°46' W 003°25'3 9.3
2017-Apr-21 12:00N 49°48' W 003°21'5 9.4
2017-Apr-21 11:31N 49°50' W 003°15'6 9.7
2017-Apr-21 10:55N 49°53' W 003°07'410.0
2017-Apr-21 10:31N 49°55' W 003°02'510.2
2017-Apr-21 10:00N 49°58' W 002°55'1010.5
2017-Apr-21 09:05N 50°00' W 002°40'110.6
2017-Apr-21 08:56N 50°01' W 002°38'1210.6
2017-Apr-21 07:50N 50°04' W 002°20'310.4
2017-Apr-21 07:30N 50°04' W 002°15'1110.0
2017-Apr-21 06:24N 50°05' W 001°58'4 9.5
2017-Apr-21 06:01N 50°05' W 001°52'5 9.1
2017-Apr-21 05:30N 50°05' W 001°45'4 8.7
2017-Apr-21 05:00N 50°06' W 001°38'5 8.3
2017-Apr-21 04:23N 50°06' W 001°30'16 7.9
2017-Apr-21 02:25N 50°12' W 001°07'11 8.5
2017-Apr-21 01:06N 50°16' W 000°51'1 9.0
2017-Apr-21 00:59N 50°17' W 000°50'5 9.1
2017-Apr-21 00:28N 50°18' W 000°43'7 9.5
2017-Apr-20 23:45N 50°21' W 000°33'2 9.8
2017-Apr-20 23:31N 50°22' W 000°30'5 9.8
2017-Apr-20 23:00N 50°24' W 000°23'510.1
2017-Apr-20 22:31N 50°26' W 000°15'510.2
2017-Apr-20 22:00N 50°28' W 000°08'510.2
2017-Apr-20 21:31N 50°30' W 000°01'510.2
2017-Apr-20 20:58N 50°32' E 000°07'510.1
2017-Apr-20 20:30N 50°34' E 000°14'510.0
2017-Apr-20 20:01N 50°36' E 000°21'5 9.8
2017-Apr-20 19:30N 50°37' E 000°29'5 9.5
2017-Apr-20 19:01N 50°39' E 000°35'5 9.4
2017-Apr-20 18:31N 50°42' E 000°41'5 9.1
2017-Apr-20 18:01N 50°44' E 000°47'6 8.9
2017-Apr-20 17:20N 50°48' E 000°55'11 8.8
2017-Apr-20 16:07N 50°55' E 001°08'1 9.0
2017-Apr-20 16:01N 50°55' E 001°09'5 9.2
2017-Apr-20 15:31N 50°58' E 001°15'5 9.8
2017-Apr-20 15:01N 51°01' E 001°21'510.4
2017-Apr-20 14:31N 51°05' E 001°27'1111.1
2017-Apr-20 13:30N 51°12' E 001°41'510.7
2017-Apr-20 13:00N 51°16' E 001°46'510.4
2017-Apr-20 12:31N 51°20' E 001°50'510.1
2017-Apr-20 12:00N 51°25' E 001°54'5 9.7
2017-Apr-20 11:31N 51°29' E 001°59'5 9.4
2017-Apr-20 11:00N 51°32' E 002°04'4 9.0
2017-Apr-20 10:30N 51°36' E 002°09'89 9.0
2017-Apr-20 00:32N 52°31' E 004°03'0 9.6
2017-Apr-20 00:29N 52°31' E 004°04'4 9.3
2017-Apr-20 00:01N 52°31' E 004°11'5 9.0
2017-Apr-19 23:30N 52°30' E 004°18'5 9.1
2017-Apr-19 23:01N 52°29' E 004°25'5 9.1
2017-Apr-19 22:30N 52°28' E 004°33'2 4.4
2017-Apr-19 21:59N 52°28' E 004°36'0 0.0
2017-Apr-19 21:29N 52°28' E 004°36'0 0.0
2017-Apr-19 20:59N 52°28' E 004°36'0 0.0
2017-Apr-19 20:29N 52°28' E 004°36'0 0.0
2017-Apr-19 19:59N 52°28' E 004°36'0 0.0
2017-Apr-19 19:29N 52°28' E 004°36'0 0.0
2017-Apr-19 18:56N 52°28' E 004°36'0 0.0
2017-Apr-19 18:29N 52°28' E 004°36'0 0.0
2017-Apr-19 17:59N 52°28' E 004°36'0 0.0
2017-Apr-19 17:29N 52°28' E 004°36'0 0.0
2017-Apr-19 16:53N 52°28' E 004°36'0 0.0
2017-Apr-19 16:29N 52°28' E 004°36'0 0.0
2017-Apr-19 15:59N 52°28' E 004°36'0 0.0
2017-Apr-19 15:29N 52°28' E 004°36'0 0.0
2017-Apr-19 14:59N 52°28' E 004°36'0 0.0
2017-Apr-19 14:29N 52°28' E 004°36'0 0.0
2017-Apr-19 13:29N 52°28' E 004°36'0 0.0
2017-Apr-19 12:59N 52°28' E 004°36'0 0.0
2017-Apr-19 12:02N 52°28' E 004°36'0 0.1
2017-Apr-19 11:59N 52°28' E 004°36'0 0.0
2017-Apr-19 11:29N 52°28' E 004°36'0 0.0
2017-Apr-19 10:59N 52°28' E 004°36'0 0.0
2017-Apr-19 10:29N 52°28' E 004°36'0 0.0
2017-Apr-19 09:59N 52°28' E 004°36'0 0.0
2017-Apr-19 09:29N 52°28' E 004°36'0 0.0
2017-Apr-19 08:59N 52°28' E 004°36'0 0.0
2017-Apr-19 08:29N 52°28' E 004°36'0 0.0
2017-Apr-19 07:59N 52°28' E 004°36'0 0.0
2017-Apr-19 07:29N 52°28' E 004°36'0 0.0
2017-Apr-19 06:56N 52°28' E 004°36'0 0.0
2017-Apr-19 06:29N 52°28' E 004°36'0 0.0
2017-Apr-19 05:59N 52°28' E 004°36'0 0.0
2017-Apr-19 05:29N 52°28' E 004°36'0 0.0
2017-Apr-19 04:59N 52°28' E 004°36'0 0.0
2017-Apr-19 04:28N 52°28' E 004°36'0 0.0
2017-Apr-19 03:58N 52°28' E 004°36'0 0.0
2017-Apr-19 03:28N 52°28' E 004°36'0 0.0
2017-Apr-19 02:55N 52°28' E 004°36'0 0.0
2017-Apr-19 02:28N 52°28' E 004°36'0 0.0
2017-Apr-19 01:58N 52°28' E 004°36'0 0.0
2017-Apr-19 01:28N 52°28' E 004°36'0 0.0
2017-Apr-19 00:58N 52°28' E 004°36'0 0.0
2017-Apr-19 00:28N 52°28' E 004°36'0 0.0
2017-Apr-18 23:58N 52°28' E 004°36'0 0.0
2017-Apr-18 23:28N 52°28' E 004°36'0 0.0
2017-Apr-18 22:58N 52°28' E 004°36'0 0.0
2017-Apr-18 22:28N 52°28' E 004°36'0 0.0
2017-Apr-18 21:58N 52°28' E 004°36'0 0.0
2017-Apr-18 21:28N 52°28' E 004°36'0 0.0
2017-Apr-18 20:58N 52°28' E 004°36'0 0.0
2017-Apr-18 20:28N 52°28' E 004°36'0 0.0
2017-Apr-18 19:55N 52°28' E 004°36'0 0.0
2017-Apr-18 19:28N 52°28' E 004°36'0 0.0
2017-Apr-18 18:58N 52°28' E 004°36'0 0.0
2017-Apr-18 18:28N 52°28' E 004°36'0 0.0
2017-Apr-18 17:55N 52°28' E 004°36'0 0.0
2017-Apr-18 17:28N 52°28' E 004°36'0 0.0
2017-Apr-18 16:58N 52°28' E 004°36'0 0.0
2017-Apr-18 16:28N 52°28' E 004°36'0 0.0
2017-Apr-18 15:55N 52°28' E 004°36'0 0.1
2017-Apr-18 15:28N 52°28' E 004°36'0 0.0
2017-Apr-18 14:58N 52°28' E 004°36'0 0.0
2017-Apr-18 14:28N 52°28' E 004°36'0 0.1
2017-Apr-18 13:28N 52°28' E 004°36'0 0.0
2017-Apr-18 12:55N 52°28' E 004°36'0 0.0
2017-Apr-18 12:28N 52°28' E 004°36'0 0.0
2017-Apr-18 11:58N 52°28' E 004°36'0 0.0
2017-Apr-18 11:28N 52°28' E 004°36'0 0.0
2017-Apr-18 10:52N 52°28' E 004°36'0 0.0
2017-Apr-18 10:25N 52°28' E 004°36'0 0.0
2017-Apr-18 09:58N 52°28' E 004°36'0 0.0
2017-Apr-18 09:28N 52°28' E 004°36'0 0.0
2017-Apr-18 08:58N 52°28' E 004°36'0 0.0
2017-Apr-18 08:28N 52°28' E 004°36'0 0.0
2017-Apr-18 07:58N 52°28' E 004°36'0 0.0
2017-Apr-18 07:28N 52°28' E 004°36'0 0.0
2017-Apr-18 06:58N 52°28' E 004°36'0 0.0
2017-Apr-18 06:28N 52°28' E 004°36'0 0.0
2017-Apr-18 05:58N 52°28' E 004°36'0 0.0
2017-Apr-18 05:25N 52°28' E 004°36'0 0.0
2017-Apr-18 04:58N 52°28' E 004°36'0 0.0
2017-Apr-18 04:28N 52°28' E 004°36'0 0.0
2017-Apr-18 03:58N 52°28' E 004°36'0 0.0
2017-Apr-18 03:28N 52°28' E 004°36'0 0.0
2017-Apr-18 02:58N 52°28' E 004°36'0 0.0
2017-Apr-18 02:28N 52°28' E 004°36'0 0.0
2017-Apr-18 01:58N 52°28' E 004°36'0 0.0
2017-Apr-18 01:28N 52°28' E 004°36'0 0.0
2017-Apr-18 00:58N 52°28' E 004°36'0 0.0
2017-Apr-18 00:25N 52°28' E 004°36'0 0.0
2017-Apr-17 23:55N 52°28' E 004°36'0 0.0
2017-Apr-17 23:28N 52°28' E 004°36'0 0.0
2017-Apr-17 22:58N 52°28' E 004°36'0 0.0
2017-Apr-17 22:31N 52°28' E 004°36'0 0.0
2017-Apr-17 22:01N 52°28' E 004°36'0 0.0
2017-Apr-17 21:30N 52°28' E 004°36'0 0.0
2017-Apr-17 21:00N 52°28' E 004°36'0 0.0
2017-Apr-17 20:30N 52°28' E 004°36'0 0.0
2017-Apr-17 20:00N 52°28' E 004°36'0 0.0
2017-Apr-17 19:30N 52°28' E 004°36'0 0.0
2017-Apr-17 19:00N 52°28' E 004°36'0 0.0
2017-Apr-17 18:30N 52°28' E 004°36'0 0.0
2017-Apr-17 18:00N 52°28' E 004°36'0 0.0
2017-Apr-17 17:30N 52°28' E 004°36'0 0.0
2017-Apr-17 17:00N 52°28' E 004°36'0 0.0
2017-Apr-17 16:30N 52°28' E 004°36'0 0.0
2017-Apr-17 16:00N 52°28' E 004°36'0 0.0
2017-Apr-17 15:30N 52°28' E 004°36'0 0.0
2017-Apr-17 15:00N 52°28' E 004°36'0 0.0
2017-Apr-17 14:30N 52°28' E 004°36'0 0.0
2017-Apr-17 13:30N 52°28' E 004°36'0 0.0
2017-Apr-17 13:00N 52°28' E 004°36'0 0.0
2017-Apr-17 12:30N 52°28' E 004°36'0 0.0
2017-Apr-17 12:00N 52°28' E 004°36'0 0.0
2017-Apr-17 11:30N 52°28' E 004°36'0 0.0
2017-Apr-17 11:00N 52°28' E 004°36'0 0.0
2017-Apr-17 10:30N 52°28' E 004°36'0 0.0
2017-Apr-17 10:00N 52°28' E 004°36'0 0.0
2017-Apr-17 09:30N 52°28' E 004°36'0 0.0
2017-Apr-17 09:00N 52°28' E 004°36'0 0.0
2017-Apr-17 08:30N 52°28' E 004°36'0 0.0
2017-Apr-17 08:00N 52°28' E 004°36'0 0.0
2017-Apr-17 07:30N 52°28' E 004°36'0 0.0
2017-Apr-17 07:00N 52°28' E 004°36'0 0.0
2017-Apr-17 06:30N 52°28' E 004°36'0 0.0
2017-Apr-17 06:00N 52°28' E 004°36'0 0.0
2017-Apr-17 05:30N 52°28' E 004°36'0 0.0
2017-Apr-17 05:00N 52°28' E 004°36'0 0.0
2017-Apr-17 04:30N 52°28' E 004°36'0 0.0
2017-Apr-17 04:00N 52°28' E 004°36'0 0.0
2017-Apr-17 03:30N 52°28' E 004°36'0 0.0
2017-Apr-17 03:00N 52°28' E 004°36'0 0.0
2017-Apr-17 02:27N 52°28' E 004°36'0 0.0
2017-Apr-17 02:00N 52°28' E 004°36'0 0.0
2017-Apr-17 01:30N 52°28' E 004°36'0 0.0
2017-Apr-17 01:00N 52°28' E 004°36'0 0.0
2017-Apr-17 00:30N 52°28' E 004°36'0 0.0
2017-Apr-16 23:57N 52°28' E 004°36'0 0.0
2017-Apr-16 23:30N 52°28' E 004°36'0 0.0
2017-Apr-16 23:00N 52°28' E 004°36'0 0.0
2017-Apr-16 22:30N 52°28' E 004°36'0 0.0
2017-Apr-16 22:00N 52°28' E 004°36'0 0.0
2017-Apr-16 21:30N 52°28' E 004°36'0 0.0
2017-Apr-16 21:00N 52°28' E 004°36'0 0.0
2017-Apr-16 20:27N 52°28' E 004°36'0 0.0
2017-Apr-16 20:00N 52°28' E 004°36'0 0.0
2017-Apr-16 19:30N 52°28' E 004°36'0 0.0
2017-Apr-16 18:57N 52°28' E 004°36'0 0.0
2017-Apr-16 18:30N 52°28' E 004°36'0 0.0
2017-Apr-16 18:00N 52°28' E 004°36'0 0.0
2017-Apr-16 17:30N 52°28' E 004°36'0 0.0
2017-Apr-16 17:00N 52°28' E 004°36'0 0.0
2017-Apr-16 16:30N 52°28' E 004°36'0 0.0
2017-Apr-16 16:00N 52°28' E 004°36'0 0.1
2017-Apr-16 15:30N 52°28' E 004°36'0 0.1
2017-Apr-16 15:00N 52°28' E 004°36'0 0.0
2017-Apr-16 13:59N 52°28' E 004°36'0 0.0
2017-Apr-16 13:29N 52°28' E 004°36'0 0.0
2017-Apr-16 12:59N 52°28' E 004°36'0 0.0
2017-Apr-16 12:29N 52°28' E 004°36'0 0.0
2017-Apr-16 11:59N 52°28' E 004°36'0 0.0
2017-Apr-16 11:29N 52°28' E 004°36'0 0.0
2017-Apr-16 10:59N 52°28' E 004°36'0 0.2
2017-Apr-16 10:29N 52°28' E 004°36'0 0.2
2017-Apr-16 09:59N 52°28' E 004°36'0 0.0
2017-Apr-16 09:29N 52°28' E 004°36'0 0.0
2017-Apr-16 08:56N 52°28' E 004°36'0 0.1
2017-Apr-16 08:29N 52°28' E 004°36'0 0.0
2017-Apr-16 07:59N 52°28' E 004°36'0 0.0
2017-Apr-16 07:29N 52°28' E 004°36'0 0.0
2017-Apr-16 06:59N 52°28' E 004°36'0 0.0
2017-Apr-16 06:29N 52°28' E 004°36'0 0.0
2017-Apr-16 05:59N 52°28' E 004°36'0 0.0
2017-Apr-16 05:29N 52°28' E 004°36'0 0.0
2017-Apr-16 04:59N 52°28' E 004°36'0 0.0
2017-Apr-16 04:29N 52°28' E 004°36'0 0.0
2017-Apr-16 03:59N 52°28' E 004°36'0 0.0
2017-Apr-16 03:29N 52°28' E 004°36'0 0.0
2017-Apr-16 02:59N 52°28' E 004°36'0 0.0
2017-Apr-16 02:29N 52°28' E 004°36'0 0.0
2017-Apr-16 01:59N 52°28' E 004°36'0 0.0
2017-Apr-16 01:29N 52°28' E 004°36'0 0.0
2017-Apr-16 00:59N 52°28' E 004°36'0 0.0
2017-Apr-16 00:29N 52°28' E 004°36'0 0.0
2017-Apr-15 23:59N 52°28' E 004°36'0 0.0
2017-Apr-15 23:29N 52°28' E 004°36'0 0.0
2017-Apr-15 22:59N 52°28' E 004°36'0 0.0
2017-Apr-15 22:29N 52°28' E 004°36'0 0.0
2017-Apr-15 21:59N 52°28' E 004°36'0 0.0
2017-Apr-15 21:29N 52°28' E 004°36'0 0.0
2017-Apr-15 20:59N 52°28' E 004°36'0 0.0
2017-Apr-15 20:29N 52°28' E 004°36'0 0.0
2017-Apr-15 19:59N 52°28' E 004°36'0 0.0
2017-Apr-15 19:29N 52°28' E 004°36'0 0.0
2017-Apr-15 18:59N 52°28' E 004°36'0 0.0
2017-Apr-15 18:29N 52°28' E 004°36'0 0.0
2017-Apr-15 17:59N 52°28' E 004°36'0 0.0
2017-Apr-15 17:29N 52°28' E 004°36'0 0.0
2017-Apr-15 16:59N 52°28' E 004°36'0 0.0
2017-Apr-15 16:26N 52°28' E 004°36'0 0.1
2017-Apr-15 15:59N 52°28' E 004°36'0 0.1
2017-Apr-15 15:29N 52°28' E 004°36'0 0.0
2017-Apr-15 14:56N 52°28' E 004°36'0 0.0
2017-Apr-15 13:59N 52°28' E 004°36'0 0.0
2017-Apr-15 13:29N 52°28' E 004°36'0 0.0
2017-Apr-15 12:59N 52°28' E 004°36'0 0.0
2017-Apr-15 12:29N 52°28' E 004°36'0 0.0
2017-Apr-15 11:59N 52°28' E 004°36'0 0.0
2017-Apr-15 11:26N 52°28' E 004°36'0 0.0
2017-Apr-15 10:59N 52°28' E 004°36'0 0.0
2017-Apr-15 09:59N 52°28' E 004°36'0 0.0
2017-Apr-15 09:29N 52°28' E 004°36'2 5.0
2017-Apr-15 09:00N 52°28' E 004°32'4 8.9
2017-Apr-15 08:31N 52°28' E 004°25'4 8.0
2017-Apr-15 08:01N 52°29' E 004°18'4 8.9
2017-Apr-15 07:31N 52°29' E 004°11'5 9.3
2017-Apr-15 07:00N 52°28' E 004°04'5 9.4
2017-Apr-15 06:27N 52°26' E 003°56'3 6.9
2017-Apr-15 05:58N 52°25' E 003°51'67 5.7
2017-Apr-14 18:15N 51°40' E 002°30'3 7.0
2017-Apr-14 17:53N 51°38' E 002°27'3 7.2
2017-Apr-14 17:31N 51°36' E 002°25'4 7.6
2017-Apr-14 17:01N 51°33' E 002°21'4 7.8
2017-Apr-14 16:30N 51°30' E 002°17'4 7.5
2017-Apr-14 16:01N 51°26' E 002°14'4 8.0
2017-Apr-14 15:31N 51°23' E 002°11'4 7.9
2017-Apr-14 15:01N 51°19' E 002°08'8 8.2
2017-Apr-14 14:00N 51°13' E 002°00'4 8.5
2017-Apr-14 13:30N 51°10' E 001°55'4 8.5
2017-Apr-14 13:01N 51°07' E 001°50'4 8.4
2017-Apr-14 12:31N 51°05' E 001°45'4 8.1
2017-Apr-14 12:01N 51°02' E 001°41'4 7.2
2017-Apr-14 11:31N 50°59' E 001°37'3 6.6
2017-Apr-14 11:00N 50°56' E 001°34'4 8.2
2017-Apr-14 10:31N 50°53' E 001°30'4 7.6
2017-Apr-14 10:00N 50°49' E 001°28'  

Dump ship's entire track history